Johnny James — WYT8450 — position and weather

sailwx.info

Track history (hours):
 
Tides and Currents Weather Stations Pressure Air Temp Water Temp Dewpoint Dewpoint Depression Visibility Wind Speed Wind Dir Waves Ship Positions

Johnny James

Owner: CALLAIS & SONS INC, CUT OFF, LA. More information available from US FCC via Universal Licensing System and Coast Guard Vessel Documentation Center.

Last reported at 2016-May-05 19:33 UTC. Time now 2016-May-05 20:00 UTC.
Position N 29°56' W 089°57'.

Length 20 m.

Type: Towing. MMSI: 367005220.

Date/timePositionNaut miles runAvg speedWind from/ knotsBaromVisibWave heightAir tempDewpointWater temp
2016-May-05 19:33N 29°56' W 089°57'0 0.0
2016-May-05 18:33N 29°56' W 089°57'0 0.0
2016-May-05 17:33N 29°56' W 089°57'0 0.0
2016-May-05 16:33N 29°56' W 089°57'1 0.7
2016-May-05 15:33N 29°55' W 089°58'7 7.0
2016-May-05 14:33N 29°55' W 090°06'5 5.4
2016-May-05 13:32N 29°56' W 090°12'0 0.2
2016-May-05 12:29N 29°56' W 090°12'0 0.0
2016-May-05 11:30N 29°56' W 090°12'0 0.0
2016-May-05 10:32N 29°56' W 090°12'0 0.0
2016-May-05 09:24N 29°56' W 090°12'0 0.0
2016-May-05 08:27N 29°56' W 090°12'0 0.0
2016-May-05 07:34N 29°56' W 090°12'0 0.0
2016-May-05 06:33N 29°56' W 090°12'0 0.0
2016-May-05 05:33N 29°56' W 090°12'0 0.0
2016-May-05 04:33N 29°56' W 090°12'0 0.0
2016-May-05 03:33N 29°56' W 090°12'0 0.3
2016-May-05 02:33N 29°55' W 090°12'0 0.3
2016-May-05 01:34N 29°56' W 090°12'0 0.0
2016-May-05 00:32N 29°56' W 090°12'0 0.0
2016-May-04 23:25N 29°56' W 090°12'0 0.0
2016-May-04 22:34N 29°56' W 090°12'0 0.0
2016-May-04 21:33N 29°56' W 090°12'0 0.3
2016-May-04 20:33N 29°56' W 090°12'3 3.0
2016-May-04 19:34N 29°57' W 090°09'3 2.8
2016-May-04 18:33N 29°55' W 090°07'3 3.0
2016-May-04 17:33N 29°55' W 090°04'0 0.3
2016-May-04 16:33N 29°55' W 090°04'0 0.0
2016-May-04 15:33N 29°55' W 090°04'7 6.5
2016-May-04 14:33N 29°56' W 090°11'1 0.7
2016-May-04 13:33N 29°56' W 090°12'0 0.0
2016-May-04 12:32N 29°56' W 090°12'0 0.0
2016-May-04 11:32N 29°56' W 090°12'0 0.0
2016-May-04 10:33N 29°56' W 090°12'0 0.0
2016-May-04 09:33N 29°56' W 090°12'0 0.0
2016-May-04 08:30N 29°56' W 090°12'0 0.0
2016-May-04 06:32N 29°56' W 090°12'0 0.0
2016-May-04 05:33N 29°56' W 090°12'0 0.0
2016-May-04 04:32N 29°56' W 090°12'0 0.0
2016-May-04 03:32N 29°56' W 090°12'0 0.0
2016-May-04 02:32N 29°56' W 090°12'3 3.3
2016-May-04 01:33N 29°57' W 090°09'0 0.0
2016-May-04 00:33N 29°57' W 090°09'0 0.5
2016-May-03 23:33N 29°57' W 090°09'3 3.2
2016-May-03 22:33N 29°55' W 090°06'1 1.3
2016-May-03 21:33N 29°55' W 090°04'0 0.0
2016-May-03 20:33N 29°55' W 090°04'0 0.0
2016-May-03 19:33N 29°55' W 090°04'0 0.0
2016-May-03 18:33N 29°55' W 090°04'0 0.0
2016-May-03 17:33N 29°55' W 090°04'0 0.0
2016-May-03 16:33N 29°55' W 090°04'0 0.0
2016-May-03 15:33N 29°55' W 090°04'0 0.0
2016-May-03 14:33N 29°55' W 090°04'0 0.0
2016-May-03 13:33N 29°55' W 090°04'0 0.0
2016-May-03 12:33N 29°55' W 090°04'0 0.0
2016-May-03 11:33N 29°55' W 090°04'0 0.0
2016-May-03 10:33N 29°55' W 090°04'0 0.0
2016-May-03 09:33N 29°55' W 090°04'0 0.0
2016-May-03 08:33N 29°55' W 090°04'0 0.0
2016-May-03 07:33N 29°55' W 090°04'0 0.0
2016-May-03 06:33N 29°55' W 090°04'0 0.0
2016-May-03 05:33N 29°55' W 090°04'0 0.4
2016-May-03 04:33N 29°55' W 090°05'5 4.6
2016-May-03 03:33N 29°57' W 090°10'  
2016-Apr-26 06:23N 29°57' W 092°53'3 4.0
2016-Apr-26 05:33N 29°56' W 092°56'3 2.8
2016-Apr-26 04:33N 29°56' W 092°59'4 3.8
2016-Apr-26 03:33N 29°56' W 093°04'3 3.4
2016-Apr-26 02:33N 29°56' W 093°08'3 3.1
2016-Apr-26 01:33N 29°57' W 093°11'4 4.3
2016-Apr-26 00:33N 30°01' W 093°14'4 3.9
2016-Apr-25 23:33N 30°04' W 093°16'2 1.9
2016-Apr-25 22:33N 30°06' W 093°18'0 0.5
2016-Apr-25 21:34N 30°06' W 093°18'2 2.3
2016-Apr-25 20:33N 30°05' W 093°20'3 3.1
2016-Apr-25 19:34N 30°04' W 093°24'  
Track history (hours):
 
Tides and Currents Weather Stations Pressure Air Temp Water Temp Dewpoint Dewpoint Depression Visibility Wind Speed Wind Dir Waves Ship Positions

Johnny James

Owner: CALLAIS & SONS INC, CUT OFF, LA. More information available from US FCC via Universal Licensing System and Coast Guard Vessel Documentation Center.

Last reported at 2016-May-05 19:33 UTC. Time now 2016-May-05 20:00 UTC.
Position N 29°56' W 089°57'.

Length 20 m.

Type: Towing. MMSI: 367005220.

Date/timePositionNaut miles runAvg speedWind from/ knotsBaromVisibWave heightAir tempDewpointWater temp
2016-May-05 19:33N 29°56' W 089°57'0 0.0
2016-May-05 18:33N 29°56' W 089°57'0 0.0
2016-May-05 17:33N 29°56' W 089°57'0 0.0
2016-May-05 16:33N 29°56' W 089°57'1 0.7
2016-May-05 15:33N 29°55' W 089°58'7 7.0
2016-May-05 14:33N 29°55' W 090°06'5 5.4
2016-May-05 13:32N 29°56' W 090°12'0 0.2
2016-May-05 12:29N 29°56' W 090°12'0 0.0
2016-May-05 11:30N 29°56' W 090°12'0 0.0
2016-May-05 10:32N 29°56' W 090°12'0 0.0
2016-May-05 09:24N 29°56' W 090°12'0 0.0
2016-May-05 08:27N 29°56' W 090°12'0 0.0
2016-May-05 07:34N 29°56' W 090°12'0 0.0
2016-May-05 06:33N 29°56' W 090°12'0 0.0
2016-May-05 05:33N 29°56' W 090°12'0 0.0
2016-May-05 04:33N 29°56' W 090°12'0 0.0
2016-May-05 03:33N 29°56' W 090°12'0 0.3
2016-May-05 02:33N 29°55' W 090°12'0 0.3
2016-May-05 01:34N 29°56' W 090°12'0 0.0
2016-May-05 00:32N 29°56' W 090°12'0 0.0
2016-May-04 23:25N 29°56' W 090°12'0 0.0
2016-May-04 22:34N 29°56' W 090°12'0 0.0
2016-May-04 21:33N 29°56' W 090°12'0 0.3
2016-May-04 20:33N 29°56' W 090°12'3 3.0
2016-May-04 19:34N 29°57' W 090°09'3 2.8
2016-May-04 18:33N 29°55' W 090°07'3 3.0
2016-May-04 17:33N 29°55' W 090°04'0 0.3
2016-May-04 16:33N 29°55' W 090°04'0 0.0
2016-May-04 15:33N 29°55' W 090°04'7 6.5
2016-May-04 14:33N 29°56' W 090°11'1 0.7
2016-May-04 13:33N 29°56' W 090°12'0 0.0
2016-May-04 12:32N 29°56' W 090°12'0 0.0
2016-May-04 11:32N 29°56' W 090°12'0 0.0
2016-May-04 10:33N 29°56' W 090°12'0 0.0
2016-May-04 09:33N 29°56' W 090°12'0 0.0
2016-May-04 08:30N 29°56' W 090°12'0 0.0
2016-May-04 06:32N 29°56' W 090°12'0 0.0
2016-May-04 05:33N 29°56' W 090°12'0 0.0
2016-May-04 04:32N 29°56' W 090°12'0 0.0
2016-May-04 03:32N 29°56' W 090°12'0 0.0
2016-May-04 02:32N 29°56' W 090°12'3 3.3
2016-May-04 01:33N 29°57' W 090°09'0 0.0
2016-May-04 00:33N 29°57' W 090°09'0 0.5
2016-May-03 23:33N 29°57' W 090°09'3 3.2
2016-May-03 22:33N 29°55' W 090°06'1 1.3
2016-May-03 21:33N 29°55' W 090°04'0 0.0
2016-May-03 20:33N 29°55' W 090°04'0 0.0
2016-May-03 19:33N 29°55' W 090°04'0 0.0
2016-May-03 18:33N 29°55' W 090°04'0 0.0
2016-May-03 17:33N 29°55' W 090°04'0 0.0
2016-May-03 16:33N 29°55' W 090°04'0 0.0
2016-May-03 15:33N 29°55' W 090°04'0 0.0
2016-May-03 14:33N 29°55' W 090°04'0 0.0
2016-May-03 13:33N 29°55' W 090°04'0 0.0
2016-May-03 12:33N 29°55' W 090°04'0 0.0
2016-May-03 11:33N 29°55' W 090°04'0 0.0
2016-May-03 10:33N 29°55' W 090°04'0 0.0
2016-May-03 09:33N 29°55' W 090°04'0 0.0
2016-May-03 08:33N 29°55' W 090°04'0 0.0
2016-May-03 07:33N 29°55' W 090°04'0 0.0
2016-May-03 06:33N 29°55' W 090°04'0 0.0
2016-May-03 05:33N 29°55' W 090°04'0 0.4
2016-May-03 04:33N 29°55' W 090°05'5 4.6
2016-May-03 03:33N 29°57' W 090°10'  
2016-Apr-26 06:23N 29°57' W 092°53'3 4.0
2016-Apr-26 05:33N 29°56' W 092°56'3 2.8
2016-Apr-26 04:33N 29°56' W 092°59'4 3.8
2016-Apr-26 03:33N 29°56' W 093°04'3 3.4
2016-Apr-26 02:33N 29°56' W 093°08'3 3.1
2016-Apr-26 01:33N 29°57' W 093°11'4 4.3
2016-Apr-26 00:33N 30°01' W 093°14'4 3.9
2016-Apr-25 23:33N 30°04' W 093°16'2 1.9
2016-Apr-25 22:33N 30°06' W 093°18'0 0.5
2016-Apr-25 21:34N 30°06' W 093°18'2 2.3
2016-Apr-25 20:33N 30°05' W 093°20'3 3.1
2016-Apr-25 19:34N 30°04' W 093°24'  

Dump ship's entire track history